Time;durP1;ratioP1;P1;durP2;ratioP2;P2;SDS_P1;SDS_P2;PMS_P1;PMS_P2;Temp;Humidity;BMP_temperature;BMP_pressure;BME280_temperature;BME280_humidity;BME280_pressure;Samples;Min_cycle;Max_cycle;Signal;HPM_P1;HPM_P2
2024/01/11 00:01:10;;;;;;;63.30;35.13;;;-6.90;99.90;;;-141.84;84.25;18761.22;5114559;28;20651;-61
2024/01/11 00:03:40;;;;;;;70.23;36.60;;;-7.00;99.90;;;-141.84;84.17;18775.44;5111546;27;20261;-60
2024/01/11 00:06:08;;;;;;;66.20;36.03;;;-7.00;99.90;;;-141.84;83.68;18663.69;5112494;28;20859;-61
2024/01/11 00:08:37;;;;;;;67.43;37.47;;;-7.10;99.90;;;-141.84;83.26;18576.31;5097336;28;20221;-61
2024/01/11 00:11:06;;;;;;;67.30;39.00;;;-7.10;99.90;;;-141.84;83.05;18562.09;5115073;28;20222;-60
2024/01/11 00:13:34;;;;;;;68.00;38.37;;;-7.10;99.90;;;-141.84;83.72;18600.72;5111442;28;20238;-61
2024/01/11 00:16:02;;;;;;;66.33;35.80;;;-7.20;99.90;;;-141.84;84.62;18728.72;5111638;28;20218;-61
2024/01/11 00:18:31;;;;;;;67.67;35.23;;;-7.20;99.90;;;-141.84;85.25;18891.25;5110940;28;20224;-61
2024/01/11 00:21:01;;;;;;;65.37;34.73;;;-7.30;99.90;;;-141.84;85.82;19096.47;5105858;28;20732;-62
2024/01/11 00:23:29;;;;;;;70.43;34.27;;;-7.30;99.90;;;-141.84;85.61;19161.50;5111853;28;20199;-61
2024/01/11 00:25:57;;;;;;;66.77;34.37;;;-7.30;99.90;;;-141.84;85.15;18944.09;5112263;28;20230;-61
2024/01/11 00:28:26;;;;;;;67.37;35.03;;;-7.30;99.90;;;-141.84;86.13;19212.31;5112747;28;20232;-61
2024/01/11 00:30:54;;;;;;;60.50;34.17;;;-7.30;99.90;;;-141.84;86.02;19338.28;5111737;28;20290;-61
2024/01/11 00:33:22;;;;;;;62.50;32.93;;;-7.30;99.90;;;-141.84;85.76;19177.75;5110898;28;20288;-62
2024/01/11 00:35:51;;;;;;;61.70;34.23;;;-7.30;99.90;;;-141.84;86.62;19511.03;5111284;28;20743;-60
2024/01/11 00:38:20;;;;;;;67.67;34.73;;;-7.40;99.90;;;-141.84;85.79;19192.00;5115520;27;20683;-62
2024/01/11 00:40:48;;;;;;;57.83;32.53;;;-7.30;99.90;;;-141.84;85.31;18970.50;5115599;28;20223;-61
2024/01/11 00:43:17;;;;;;;63.97;34.50;;;-7.30;99.90;;;-141.84;85.08;18931.91;5106846;28;20219;-61
2024/01/11 00:45:46;;;;;;;58.40;32.23;;;-7.40;99.90;;;-141.84;85.63;18962.38;5114242;27;20220;-62
2024/01/11 00:48:15;;;;;;;61.50;34.13;;;-7.40;99.90;;;-141.84;84.75;18771.38;5113933;28;20223;-62
2024/01/11 00:50:43;;;;;;;61.10;33.03;;;-7.40;99.90;;;-141.84;84.28;18749.03;5114848;28;20275;-61
2024/01/11 00:53:14;;;;;;;63.30;32.97;;;-7.30;99.90;;;-141.84;85.56;18883.13;5114823;28;20238;-60
2024/01/11 00:55:44;;;;;;;54.80;31.13;;;-7.40;99.90;;;-141.84;86.98;19460.22;5114187;28;20237;-61
2024/01/11 00:58:12;;;;;;;61.23;32.40;;;-7.40;99.90;;;-141.84;86.91;19817.91;5114486;28;20221;-61
2024/01/11 01:00:40;;;;;;;62.07;33.83;;;-7.40;99.90;;;-141.84;86.73;19637.03;5114334;28;20222;-61
2024/01/11 01:03:09;;;;;;;57.00;31.70;;;-7.40;99.90;;;-141.84;85.91;19293.59;5113599;28;20279;-61
2024/01/11 01:05:37;;;;;;;67.83;36.43;;;-7.40;99.90;;;-141.84;85.26;18923.78;5114409;28;20281;-61
2024/01/11 01:08:06;;;;;;;61.27;34.70;;;-7.40;99.90;;;-141.84;84.88;18830.31;5115755;28;20261;-60
2024/01/11 01:10:34;;;;;;;68.20;34.67;;;-7.40;99.90;;;-141.84;85.34;18852.66;5114996;27;20711;-60
2024/01/11 01:13:04;;;;;;;61.90;33.60;;;-7.40;99.90;;;-141.84;85.39;18956.28;5114253;28;20737;-61
2024/01/11 01:15:32;;;;;;;59.97;33.37;;;-7.50;99.90;;;-141.84;84.82;18885.16;5114852;28;20313;-61
2024/01/11 01:18:00;;;;;;;63.00;33.47;;;-7.40;99.90;;;-141.84;84.72;18824.22;5105344;28;20254;-61
2024/01/11 01:20:29;;;;;;;62.53;33.67;;;-7.40;99.90;;;-141.84;84.42;18755.13;5113596;28;20232;-62
2024/01/11 01:22:58;;;;;;;58.17;32.83;;;-7.40;99.90;;;-141.84;84.46;18686.03;5113683;27;20249;-62
2024/01/11 01:25:27;;;;;;;59.87;32.33;;;-7.40;99.90;;;-141.84;85.54;18883.13;5105645;28;20214;-61
2024/01/11 01:27:56;;;;;;;65.03;33.23;;;-7.50;99.90;;;-141.84;86.47;19283.44;5113787;28;20217;-61
2024/01/11 01:30:26;;;;;;;56.47;32.53;;;-7.50;99.90;;;-141.84;86.64;19523.22;5113359;27;20226;-62
2024/01/11 01:32:54;;;;;;;58.97;31.97;;;-7.50;99.90;;;-141.84;86.14;19299.69;5113035;28;20311;-60
2024/01/11 01:35:23;;;;;;;64.73;32.13;;;-7.50;99.90;;;-141.84;86.48;19480.53;5113635;28;20236;-62
2024/01/11 01:37:51;;;;;;;63.43;34.63;;;-7.50;99.90;;;-141.84;86.42;19450.06;5113297;28;20241;-61
2024/01/11 01:40:19;;;;;;;62.73;33.57;;;-7.50;99.90;;;-141.84;85.64;19181.81;5113621;28;20232;-61
2024/01/11 01:42:50;;;;;;;65.97;34.73;;;-7.50;99.90;;;-141.84;84.88;18840.47;5112075;28;20279;-61
2024/01/11 01:45:18;;;;;;;60.07;31.87;;;-7.50;99.90;;;-141.84;85.17;18862.81;5113748;28;20227;-63
2024/01/11 01:47:48;;;;;;;60.03;31.17;;;-7.60;99.90;;;-141.84;85.77;19057.88;5112830;28;20235;-62
2024/01/11 01:50:16;;;;;;;60.03;33.23;;;-7.60;99.90;;;-141.84;85.02;18980.66;5113912;28;20199;-61
2024/01/11 01:52:45;;;;;;;65.17;33.90;;;-7.50;99.90;;;-141.84;85.20;18923.78;5112555;28;20226;-60
2024/01/11 01:55:16;;;;;;;62.80;34.20;;;-7.60;99.90;;;-141.84;85.20;18931.91;5112968;28;20221;-61
2024/01/11 01:57:46;;;;;;;59.73;31.63;;;-7.50;99.90;;;-141.84;84.82;18862.81;5113063;28;20880;-61
2024/01/11 02:00:15;;;;;;;55.37;31.60;;;-7.60;99.90;;;-141.84;84.80;18775.44;5112813;28;20854;-62
2024/01/11 02:02:45;;;;;;;66.77;34.03;;;-7.50;99.90;;;-141.84;84.58;18763.25;5112300;28;20223;-61
2024/01/11 02:05:17;;;;;;;58.87;31.27;;;-7.50;99.90;;;-141.84;84.16;18704.31;5111796;28;20228;-62
2024/01/11 02:07:46;;;;;;;64.40;33.80;;;-7.60;99.90;;;-141.84;83.99;18661.66;5107973;28;20706;-61
2024/01/11 02:10:14;;;;;;;60.37;33.13;;;-7.60;99.90;;;-141.84;83.80;18621.03;5104806;27;20711;-63
2024/01/11 02:12:43;;;;;;;63.67;33.27;;;-7.60;99.90;;;-141.84;83.50;18562.09;5101261;28;20253;-62
2024/01/11 02:15:11;;;;;;;65.57;32.73;;;-7.60;99.90;;;-141.84;83.67;18533.66;5113083;28;20255;-60
2024/01/11 02:17:41;;;;;;;61.60;33.80;;;-7.60;99.90;;;-141.84;82.89;18476.78;5112053;28;20249;-62
2024/01/11 02:20:12;;;;;;;57.87;32.13;;;-7.60;99.90;;;-141.84;82.89;18476.78;5113225;28;20191;-61
2024/01/11 02:22:48;;;;;;;61.70;36.47;;;-7.60;99.90;;;-141.84;83.12;18495.06;5111294;28;20223;-61
2024/01/11 02:25:17;;;;;;;67.40;34.70;;;-7.60;99.90;;;-141.84;82.85;18462.56;5104236;28;20224;-60
2024/01/11 02:27:47;;;;;;;63.43;34.57;;;-7.60;99.90;;;-141.84;82.77;18458.50;5112582;27;20215;-62
2024/01/11 02:30:16;;;;;;;69.57;39.97;;;-7.70;99.90;;;-141.84;84.18;18570.22;5112382;27;20315;-60
2024/01/11 02:32:47;;;;;;;65.57;36.97;;;-7.80;99.90;;;-141.84;85.50;18901.41;5111894;28;20192;-60
2024/01/11 02:35:16;;;;;;;57.50;34.50;;;-7.80;99.90;;;-141.84;86.25;19135.09;5112788;28;20231;-61
2024/01/11 02:37:46;;;;;;;66.23;34.90;;;-7.80;99.90;;;-141.84;86.25;19244.81;5111686;28;20257;-60
2024/01/11 02:40:14;;;;;;;66.60;33.73;;;-7.80;99.90;;;-141.84;85.78;19126.97;5111305;28;20759;-61
2024/01/11 02:42:44;;;;;;;66.53;33.17;;;-7.70;99.90;;;-141.84;85.70;19092.41;5108343;28;20219;-62
2024/01/11 02:45:13;;;;;;;60.77;34.83;;;-7.70;99.90;;;-141.84;85.70;19068.03;5095853;27;20269;-60
2024/01/11 02:47:42;;;;;;;59.77;33.13;;;-7.70;99.90;;;-141.84;86.97;19476.47;5092901;28;20222;-61
2024/01/11 02:50:11;;;;;;;56.70;32.30;;;-7.70;99.90;;;-141.84;87.05;19791.47;5103371;28;20237;-61
2024/01/11 02:52:40;;;;;;;56.60;31.83;;;-7.70;99.90;;;-141.84;87.88;20149.19;5080249;28;20228;-60
2024/01/11 02:55:09;;;;;;;60.90;33.03;;;-7.70;99.90;;;-141.84;87.48;20488.63;5100618;28;20264;-61
2024/01/11 02:57:37;;;;;;;65.03;34.33;;;-7.70;99.90;;;-141.84;87.46;20120.75;5111740;28;20264;-61
2024/01/11 03:00:08;;;;;;;60.57;34.07;;;-7.70;99.90;;;-141.84;87.06;19933.75;5111177;28;20392;-62
2024/01/11 03:02:39;;;;;;;63.60;33.77;;;-7.60;99.90;;;-141.84;87.59;20063.81;5102438;28;20233;-61
2024/01/11 03:05:07;;;;;;;63.97;33.03;;;-7.70;99.90;;;-141.84;86.91;19779.28;5111718;28;20242;-61
2024/01/11 03:07:35;;;;;;;68.60;34.50;;;-7.60;99.90;;;-141.84;86.84;19470.38;5111302;27;20749;-62
2024/01/11 03:10:04;;;;;;;64.70;35.20;;;-7.70;99.90;;;-141.84;87.30;19866.69;5111778;28;20298;-62
2024/01/11 03:12:33;;;;;;;65.73;34.00;;;-7.70;99.90;;;-141.84;87.56;20183.75;5111580;28;20241;-62
2024/01/11 03:15:01;;;;;;;63.63;32.30;;;-7.70;99.90;;;-141.84;87.48;20189.84;5111905;28;20227;-61
2024/01/11 03:17:31;;;;;;;64.70;33.27;;;-7.70;99.90;;;-141.84;87.79;20669.56;5111210;28;20200;-62
2024/01/11 03:19:59;;;;;;;64.20;33.73;;;-7.70;99.90;;;-141.84;86.73;19695.97;5103942;28;20212;-62
2024/01/11 03:22:28;;;;;;;58.80;33.17;;;-7.60;99.90;;;-141.84;86.49;19472.41;5085414;28;20224;-61
2024/01/11 03:24:56;;;;;;;62.90;33.40;;;-7.70;99.90;;;-141.84;87.01;19777.25;5101387;28;20215;-62
2024/01/11 03:27:24;;;;;;;59.60;33.63;;;-7.70;99.90;;;-141.84;87.05;19687.84;5111632;28;20268;-61
2024/01/11 03:29:52;;;;;;;69.60;37.93;;;-7.70;99.90;;;-141.84;86.50;19423.66;5111751;28;20237;-61
2024/01/11 03:32:21;;;;;;;66.47;34.50;;;-7.80;99.90;;;-141.84;86.62;19393.16;5111203;28;20562;-61
2024/01/11 03:34:50;;;;;;;61.10;33.47;;;-7.80;99.90;;;-141.84;87.27;19665.47;5080602;28;20576;-61
2024/01/11 03:37:18;;;;;;;66.73;35.73;;;-7.80;99.90;;;-141.84;87.31;19954.06;5106363;28;20227;-61
2024/01/11 03:39:47;;;;;;;71.73;35.47;;;-7.80;99.90;;;-141.84;87.08;19746.78;5110981;28;20811;-61
2024/01/11 03:42:15;;;;;;;64.87;33.53;;;-7.80;99.90;;;-141.84;85.63;19139.16;5111006;28;20738;-60
2024/01/11 03:44:43;;;;;;;60.17;33.67;;;-7.80;99.90;;;-141.84;85.52;18946.13;5111278;28;20203;-61
2024/01/11 03:47:12;;;;;;;62.37;34.17;;;-7.80;99.90;;;-141.84;84.92;18799.81;5111186;28;20221;-61
2024/01/11 03:49:40;;;;;;;67.73;34.57;;;-7.80;99.90;;;-141.84;85.33;18887.19;5111016;28;20212;-61
2024/01/11 03:52:09;;;;;;;63.83;33.53;;;-7.80;99.90;;;-141.84;85.42;18925.81;5110009;28;20307;-62
2024/01/11 03:54:38;;;;;;;62.00;34.10;;;-7.80;99.90;;;-141.84;85.56;19039.59;5110236;28;20255;-61
2024/01/11 03:57:06;;;;;;;58.70;32.17;;;-7.80;99.90;;;-141.84;85.37;18940.03;5110752;28;20220;-60
2024/01/11 03:59:35;;;;;;;56.50;31.53;;;-7.80;99.90;;;-141.84;86.52;19167.59;5110876;28;20257;-60
2024/01/11 04:02:03;;;;;;;59.83;32.70;;;-7.90;99.90;;;-141.84;87.17;19787.41;5102049;28;20739;-61
2024/01/11 04:04:31;;;;;;;57.60;33.47;;;-7.90;99.90;;;-141.84;86.21;19525.25;5084222;28;20262;-61
2024/01/11 04:07:00;;;;;;;62.67;33.20;;;-7.80;99.90;;;-141.84;85.11;18854.69;5101098;28;20309;-60
2024/01/11 04:09:29;;;;;;;68.07;33.27;;;-7.80;99.90;;;-141.84;85.99;19053.81;5110690;28;20271;-61
2024/01/11 04:11:58;;;;;;;65.13;33.23;;;-7.80;99.90;;;-141.84;87.03;19610.59;5108878;28;20298;-62
2024/01/11 04:14:26;;;;;;;63.63;32.97;;;-7.90;99.90;;;-141.84;86.99;19779.28;5105845;28;20229;-61
2024/01/11 04:16:54;;;;;;;62.20;32.53;;;-7.90;99.90;;;-141.84;87.03;19578.09;5115010;28;20217;-60
2024/01/11 04:19:22;;;;;;;59.70;32.00;;;-7.90;99.90;;;-141.84;86.85;19716.28;5114174;28;20708;-60
2024/01/11 04:21:52;;;;;;;60.30;32.47;;;-7.90;99.90;;;-141.84;86.25;19403.31;5113772;27;20641;-60
2024/01/11 04:24:20;;;;;;;58.10;32.00;;;-7.90;99.90;;;-141.84;86.38;19273.28;5114711;28;20241;-60
2024/01/11 04:26:50;;;;;;;63.57;32.03;;;-7.90;99.90;;;-141.84;85.38;19033.50;5115178;28;20246;-60
2024/01/11 04:29:18;;;;;;;60.20;31.23;;;-7.90;99.90;;;-141.84;85.13;18850.63;5114629;28;20199;-60
2024/01/11 04:31:46;;;;;;;60.83;33.20;;;-7.90;99.90;;;-141.84;84.98;18775.44;5114245;28;20221;-60
2024/01/11 04:34:14;;;;;;;59.53;32.20;;;-7.90;99.90;;;-141.84;84.82;18767.31;5114088;28;20223;-60
2024/01/11 04:36:42;;;;;;;62.07;32.83;;;-7.90;99.90;;;-141.84;84.38;18659.63;5113914;28;20932;-60
2024/01/11 04:39:11;;;;;;;61.77;33.03;;;-7.90;99.90;;;-141.84;85.17;18775.44;5114318;27;20213;-60
2024/01/11 04:41:40;;;;;;;60.90;30.97;;;-7.90;99.90;;;-141.84;85.37;18956.28;5114461;27;20203;-60
2024/01/11 04:44:11;;;;;;;63.53;33.07;;;-7.90;99.90;;;-141.84;85.81;18972.53;5106561;28;20191;-61
2024/01/11 04:46:39;;;;;;;58.93;32.40;;;-7.90;99.90;;;-141.84;85.88;19029.44;5114399;28;20588;-61
2024/01/11 04:49:07;;;;;;;61.07;30.93;;;-7.90;99.90;;;-141.84;86.46;19230.59;5113715;27;20243;-61
2024/01/11 04:51:36;;;;;;;54.83;31.37;;;-7.90;99.90;;;-141.84;87.06;19448.03;5114405;27;20249;-61
2024/01/11 04:54:04;;;;;;;58.47;31.53;;;-7.90;99.90;;;-141.84;87.40;20029.28;5114101;28;20231;-60
2024/01/11 04:56:32;;;;;;;61.40;34.50;;;-7.90;99.90;;;-141.84;85.60;19129.00;5114134;28;20713;-61
2024/01/11 04:59:01;;;;;;;64.67;36.23;;;-7.90;99.90;;;-141.84;85.09;18740.91;5114587;28;20248;-61
2024/01/11 05:01:30;;;;;;;61.40;33.37;;;-7.90;99.90;;;-141.84;85.27;18830.31;5113905;28;20782;-61
2024/01/11 05:03:59;;;;;;;63.37;32.87;;;-7.90;99.90;;;-141.84;83.84;18621.03;5113558;28;20225;-61
2024/01/11 05:06:27;;;;;;;63.10;32.57;;;-7.80;99.90;;;-141.84;83.55;18568.19;5114194;27;20310;-61
2024/01/11 05:08:55;;;;;;;58.23;31.73;;;-7.80;99.90;;;-141.84;82.99;18468.66;5114606;27;20305;-60
2024/01/11 05:11:26;;;;;;;65.30;34.57;;;-7.80;99.90;;;-141.84;83.25;18444.28;5115032;28;20262;-60
2024/01/11 05:13:54;;;;;;;62.50;32.00;;;-7.80;99.90;;;-141.84;83.23;18468.66;5107464;28;20219;-61
2024/01/11 05:16:25;;;;;;;61.87;33.17;;;-7.80;99.90;;;-141.84;83.19;18486.94;5112694;28;20222;-61
2024/01/11 05:18:58;;;;;;;61.27;34.50;;;-7.80;99.90;;;-141.84;83.61;18529.59;5105438;28;20216;-60
2024/01/11 05:21:27;;;;;;;62.87;34.20;;;-7.90;99.90;;;-141.84;83.82;18574.28;5113651;28;20430;-61
2024/01/11 05:23:55;;;;;;;62.13;33.00;;;-7.90;99.90;;;-141.84;83.38;18556.00;5111959;28;20230;-60
2024/01/11 05:26:23;;;;;;;65.10;33.73;;;-8.00;99.90;;;-141.84;83.47;18517.41;5114451;28;20233;-61
2024/01/11 05:28:52;;;;;;;61.30;33.37;;;-7.90;99.90;;;-141.84;83.75;18560.06;5106921;28;20489;-60
2024/01/11 05:31:20;;;;;;;60.03;30.87;;;-8.00;99.90;;;-141.84;84.83;18704.31;5115135;28;20276;-61
2024/01/11 05:33:49;;;;;;;57.17;32.37;;;-8.00;99.90;;;-141.84;84.44;18675.88;5114496;28;20221;-61
2024/01/11 05:36:18;;;;;;;63.23;32.93;;;-7.90;99.90;;;-141.84;84.11;18673.84;5113528;28;20229;-60
2024/01/11 05:38:47;;;;;;;64.53;33.87;;;-7.90;99.90;;;-141.84;83.03;18501.16;5113310;28;20234;-61
2024/01/11 05:41:15;;;;;;;66.37;33.27;;;-7.90;99.90;;;-141.84;82.39;18403.63;5114113;28;20724;-60
2024/01/11 05:43:44;;;;;;;61.07;31.90;;;-7.90;99.90;;;-141.84;82.03;18367.06;5112742;28;20771;-62
2024/01/11 05:46:12;;;;;;;62.93;32.73;;;-7.70;99.90;;;-141.84;82.57;18379.25;5105173;28;20218;-61
2024/01/11 05:48:40;;;;;;;65.23;32.73;;;-7.90;99.90;;;-141.84;83.84;18511.31;5113384;28;20227;-60
2024/01/11 05:51:09;;;;;;;62.53;31.13;;;-7.90;99.90;;;-141.84;84.40;18686.03;5112849;28;20223;-62
2024/01/11 05:53:39;;;;;;;60.60;32.87;;;-7.90;99.90;;;-141.84;84.87;18771.38;5112952;28;20202;-61
2024/01/11 05:56:11;;;;;;;60.10;33.10;;;-7.90;99.90;;;-141.84;85.10;18872.97;5113493;28;20240;-60
2024/01/11 05:58:41;;;;;;;49.93;29.40;;;-7.90;99.90;;;-141.84;84.92;18789.66;5112030;28;20279;-61
2024/01/11 06:01:09;;;;;;;58.77;32.10;;;-7.90;99.90;;;-141.84;84.44;18759.19;5096619;27;20780;-61
2024/01/11 06:03:38;;;;;;;62.30;32.87;;;-7.90;99.90;;;-141.84;83.13;18545.84;5093339;28;20666;-59
2024/01/11 06:06:08;;;;;;;60.83;33.67;;;-7.80;99.90;;;-141.84;82.70;18484.91;5093749;28;20239;-60
2024/01/11 06:08:38;;;;;;;58.50;31.93;;;-7.80;99.90;;;-141.84;81.57;18381.28;5083781;28;20197;-60
2024/01/11 06:11:07;;;;;;;59.23;33.00;;;-7.70;99.90;;;-141.84;81.71;18312.22;5093130;28;20197;-59
2024/01/11 06:13:36;;;;;;;60.13;33.70;;;-7.70;99.90;;;-141.84;81.69;18379.25;5083213;28;20227;-60
2024/01/11 06:16:05;;;;;;;66.40;34.80;;;-7.70;99.90;;;-141.84;82.04;18391.44;5090802;28;20223;-60
2024/01/11 06:18:33;;;;;;;60.30;31.73;;;-7.80;99.90;;;-141.84;82.03;18385.34;5092722;28;20226;-61
2024/01/11 06:21:02;;;;;;;62.60;32.77;;;-7.80;99.90;;;-141.84;82.40;18419.88;5092247;28;20239;-61
2024/01/11 06:23:30;;;;;;;56.50;31.90;;;-7.80;99.90;;;-141.84;83.07;18533.66;5088313;28;20226;-60
2024/01/11 06:25:59;;;;;;;57.53;31.57;;;-7.90;99.90;;;-141.84;83.27;18476.78;5102856;28;20200;-60
2024/01/11 06:28:28;;;;;;;60.27;37.13;;;-7.90;99.90;;;-141.84;83.07;18460.53;5093796;27;20219;-61
2024/01/11 06:30:56;;;;;;;58.63;34.03;;;-7.80;99.90;;;-141.84;82.85;18480.84;5101450;28;20651;-61
2024/01/11 06:33:24;;;;;;;60.37;33.60;;;-7.90;99.90;;;-141.84;83.04;18444.28;5100464;28;20654;-61
2024/01/11 06:35:53;;;;;;;63.80;33.67;;;-7.80;99.90;;;-141.84;81.91;18379.25;5092595;28;20297;-60
2024/01/11 06:38:21;;;;;;;66.53;35.60;;;-7.70;99.90;;;-141.84;81.65;18385.34;5080256;28;20287;-61
2024/01/11 06:40:50;;;;;;;65.73;36.13;;;-7.70;99.90;;;-141.84;80.30;18326.44;5103294;28;20236;-61
2024/01/11 06:43:19;;;;;;;64.73;35.40;;;-7.70;99.90;;;-141.84;80.52;18295.97;5110194;28;20215;-61
2024/01/11 06:45:47;;;;;;;61.23;33.23;;;-7.70;99.90;;;-141.84;79.49;18263.47;5111478;28;20260;-61
2024/01/11 06:48:16;;;;;;;62.30;34.57;;;-7.70;99.90;;;-141.84;80.23;18312.22;5108464;28;20247;-61
2024/01/11 06:50:44;;;;;;;62.03;32.30;;;-7.70;99.90;;;-141.84;81.65;18381.28;5109285;28;20194;-61
2024/01/11 06:53:13;;;;;;;61.53;34.13;;;-7.70;99.90;;;-141.84;83.13;18448.34;5110837;28;20210;-62
2024/01/11 06:55:43;;;;;;;66.27;33.43;;;-7.60;99.90;;;-141.84;83.38;18562.09;5110905;28;20756;-60
2024/01/11 06:58:12;;;;;;;68.60;34.03;;;-7.60;99.90;;;-141.84;83.17;18537.72;5111198;28;20339;-61
2024/01/11 07:00:43;;;;;;;64.57;33.77;;;-7.60;99.90;;;-141.84;83.15;18537.72;5110507;28;20630;-61
2024/01/11 07:03:12;;;;;;;64.80;34.57;;;-7.60;99.90;;;-141.84;83.11;18501.16;5102916;28;20222;-61
2024/01/11 07:05:40;;;;;;;68.40;34.83;;;-7.50;99.90;;;-141.84;82.63;18509.28;5103043;27;20235;-61
2024/01/11 07:08:09;;;;;;;63.33;34.43;;;-7.50;99.90;;;-141.84;81.45;18395.50;5110568;28;20563;-63
2024/01/11 07:10:38;;;;;;;68.63;34.83;;;-7.40;99.90;;;-141.84;81.02;18354.88;5107923;28;20222;-62
2024/01/11 07:13:06;;;;;;;60.43;33.57;;;-7.30;99.90;;;-141.84;81.04;18314.25;5106615;28;20251;-61
2024/01/11 07:15:35;;;;;;;66.77;34.50;;;-7.30;99.90;;;-141.84;81.44;18363.00;5109805;28;20246;-62
2024/01/11 07:18:05;;;;;;;64.60;33.90;;;-7.30;99.90;;;-141.84;81.52;18391.44;5110797;28;20223;-62
2024/01/11 07:20:34;;;;;;;67.70;36.33;;;-7.20;99.90;;;-141.84;81.26;18344.72;5109197;28;20300;-62
2024/01/11 07:23:03;;;;;;;61.00;33.20;;;-7.20;99.90;;;-141.84;81.24;18363.00;5088990;28;20262;-61
2024/01/11 07:25:31;;;;;;;62.77;34.03;;;-7.20;99.90;;;-141.84;81.69;18442.25;5109669;27;20255;-61
2024/01/11 07:28:00;;;;;;;55.20;32.60;;;-7.20;99.90;;;-141.84;82.29;18415.81;5100841;28;20711;-61
2024/01/11 07:30:28;;;;;;;63.97;33.33;;;-7.20;99.90;;;-141.84;83.43;18535.69;5097056;28;20247;-61
2024/01/11 07:32:56;;;;;;;60.63;33.30;;;-7.30;99.90;;;-141.84;84.12;18671.81;5095988;28;20272;-61
2024/01/11 07:35:26;;;;;;;58.23;33.00;;;-7.30;99.90;;;-141.84;84.06;18738.88;5101997;28;20235;-61
2024/01/11 07:37:56;;;;;;;62.07;34.27;;;-7.20;99.90;;;-141.84;83.04;18549.91;5097433;28;20212;-62
2024/01/11 07:40:24;;;;;;;59.33;33.53;;;-7.20;99.90;;;-141.84;83.75;18604.78;5099459;28;20223;-60
2024/01/11 07:42:53;;;;;;;63.40;33.87;;;-7.20;99.90;;;-141.84;83.39;18623.06;5077732;28;20229;-61
2024/01/11 07:45:21;;;;;;;63.67;35.40;;;-7.20;99.90;;;-141.84;82.36;18476.78;5083132;28;20288;-60
2024/01/11 07:47:49;;;;;;;72.00;35.00;;;-7.10;99.90;;;-141.84;81.97;18430.06;5082746;28;20298;-61
2024/01/11 07:50:18;;;;;;;67.37;34.87;;;-7.10;99.90;;;-141.84;82.04;18389.41;5079178;28;20638;-60
2024/01/11 07:52:48;;;;;;;64.83;35.27;;;-7.10;99.90;;;-141.84;82.39;18460.53;5087736;28;20238;-60
2024/01/11 07:55:16;;;;;;;66.67;35.57;;;-7.10;99.90;;;-141.84;81.93;18436.16;5081058;28;20217;-60
2024/01/11 07:57:45;;;;;;;65.07;36.17;;;-7.10;99.90;;;-141.84;82.54;18468.66;5080814;28;20228;-61
2024/01/11 08:00:14;;;;;;;75.40;36.77;;;-7.10;99.90;;;-141.84;82.53;18460.53;5081016;28;20227;-60
2024/01/11 08:02:42;;;;;;;65.13;35.00;;;-7.10;99.90;;;-141.84;81.56;18391.44;5078389;28;20662;-60
2024/01/11 08:05:11;;;;;;;71.43;36.50;;;-7.00;99.90;;;-141.84;81.61;18407.69;5083721;28;20232;-60
2024/01/11 08:07:41;;;;;;;63.87;34.83;;;-7.00;99.90;;;-141.84;81.44;18397.53;5081609;28;20216;-60
2024/01/11 08:10:11;;;;;;;62.20;33.43;;;-7.00;99.90;;;-141.84;81.50;18369.09;5080556;28;20221;-60
2024/01/11 08:12:39;;;;;;;65.23;34.73;;;-7.00;99.90;;;-141.84;80.99;18360.97;5081240;28;20219;-60
2024/01/11 08:15:12;;;;;;;63.63;37.10;;;-6.90;99.90;;;-141.84;80.47;18354.88;5081627;28;20244;-60
2024/01/11 08:17:45;;;;;;;66.07;33.87;;;-6.90;99.90;;;-141.84;78.86;18257.38;5082715;28;20611;-60
2024/01/11 08:20:16;;;;;;;64.53;34.90;;;-6.70;99.90;;;-141.84;79.38;18289.88;5081587;28;20193;-60
2024/01/11 08:22:45;;;;;;;71.00;37.23;;;-6.70;99.90;;;-141.84;79.26;18273.63;5079258;28;20217;-60
2024/01/11 08:25:16;;;;;;;71.93;35.97;;;-6.50;99.90;;;-141.84;78.62;18289.88;5080621;28;20307;-60
2024/01/11 08:27:44;;;;;;;63.00;34.80;;;-6.50;99.90;;;-141.84;78.18;18228.91;5081306;28;20281;-60
2024/01/11 08:30:13;;;;;;;62.47;35.33;;;-6.50;99.90;;;-141.84;77.88;18224.84;5083457;28;20229;-59
2024/01/11 08:32:42;;;;;;;68.70;36.53;;;-6.40;99.90;;;-141.84;76.03;18235.00;5079727;28;20211;-61
2024/01/11 08:35:11;;;;;;;66.90;36.33;;;-6.20;99.90;;;-141.84;74.36;18220.78;5085078;28;20224;-62
2024/01/11 08:37:40;;;;;;;66.03;36.97;;;-6.20;99.90;;;-141.84;72.91;18224.84;5081068;28;20216;-60
2024/01/11 08:40:10;;;;;;;65.10;35.30;;;-6.00;99.90;;;-141.84;71.92;18210.63;5083085;28;20304;-60
2024/01/11 08:42:41;;;;;;;62.93;34.53;;;-5.90;99.90;;;-141.84;70.23;18239.09;5079507;28;20292;-60
2024/01/11 08:45:17;;;;;;;67.63;36.43;;;-5.80;99.90;;;-141.84;70.36;18243.16;5089840;28;20310;-61
2024/01/11 08:47:47;;;;;;;66.83;36.67;;;-5.80;99.90;;;-141.84;70.78;18249.25;5081171;28;20701;-61
2024/01/11 08:50:17;;;;;;;61.57;35.10;;;-5.70;99.90;;;-141.84;70.67;18230.94;5074377;28;20197;-61
2024/01/11 08:52:50;;;;;;;60.83;35.53;;;-5.70;99.90;;;-141.84;71.48;18257.38;5083733;28;20296;-61
2024/01/11 08:55:19;;;;;;;64.53;35.90;;;-5.70;99.90;;;-141.84;72.14;18232.97;5078864;28;20226;-61
2024/01/11 08:57:48;;;;;;;69.30;35.73;;;-5.80;99.90;;;-141.84;72.41;18247.22;5075579;28;20649;-62
2024/01/11 09:00:17;;;;;;;63.90;34.83;;;-5.70;99.90;;;-141.84;71.33;18255.34;5081938;28;20717;-61
2024/01/11 09:02:47;;;;;;;65.63;36.37;;;-5.60;99.90;;;-141.84;71.38;18212.66;5084170;28;20237;-61
2024/01/11 09:05:16;;;;;;;61.17;35.30;;;-5.50;99.90;;;-141.84;71.08;18267.53;5086214;28;20254;-60
2024/01/11 09:07:45;;;;;;;64.60;35.80;;;-5.40;99.90;;;-141.84;69.81;18269.56;5093048;28;20214;-61
2024/01/11 09:10:13;;;;;;;57.23;34.33;;;-5.40;99.90;;;-141.84;69.69;18261.44;5082315;28;20227;-60
2024/01/11 09:12:42;;;;;;;68.23;37.50;;;-5.40;99.90;;;-141.84;70.49;18259.41;5082682;28;20317;-60
2024/01/11 09:15:11;;;;;;;65.67;35.93;;;-5.40;99.90;;;-141.84;70.88;18247.22;5084763;28;20654;-61
2024/01/11 09:17:40;;;;;;;62.60;35.97;;;-5.40;99.90;;;-141.84;70.64;18237.06;5080461;28;20243;-60
2024/01/11 09:20:13;;;;;;;63.43;35.37;;;-5.40;99.90;;;-141.84;70.67;18257.38;5085568;28;20249;-61
2024/01/11 09:22:42;;;;;;;67.07;34.97;;;-5.30;99.90;;;-141.84;70.04;18287.84;5080350;28;20229;-60
2024/01/11 09:25:10;;;;;;;65.20;36.37;;;-5.30;99.90;;;-141.84;69.90;18271.59;5084298;28;20221;-62
2024/01/11 09:27:39;;;;;;;70.07;36.00;;;-5.20;99.90;;;-141.84;69.22;18265.50;5083281;28;20261;-61
2024/01/11 09:30:09;;;;;;;61.07;34.97;;;-5.10;99.90;;;-141.84;69.82;18261.44;5083933;28;20229;-60
2024/01/11 09:32:39;;;;;;;64.77;34.60;;;-5.00;99.90;;;-141.84;69.12;18243.16;5084605;28;20575;-61
2024/01/11 09:35:08;;;;;;;59.97;33.63;;;-4.80;99.90;;;-141.84;69.21;18253.31;5080654;28;20293;-61
2024/01/11 09:37:41;;;;;;;61.60;34.80;;;-4.70;99.90;;;-141.84;68.79;18247.22;5078509;28;20226;-61
2024/01/11 09:40:10;;;;;;;59.37;35.53;;;-4.70;99.90;;;-141.84;68.10;18245.19;5083770;28;20236;-62
2024/01/11 09:42:39;;;;;;;58.87;34.17;;;-4.50;99.90;;;-141.84;67.63;18257.38;5078892;28;20285;-61
2024/01/11 09:45:12;;;;;;;64.70;34.50;;;-4.50;99.90;;;-141.84;66.96;18230.94;5084108;28;20246;-60
2024/01/11 09:47:42;;;;;;;62.40;34.07;;;-4.50;99.90;;;-141.84;67.93;18239.09;5080951;28;20243;-60
2024/01/11 09:50:14;;;;;;;61.07;34.70;;;-4.40;99.90;;;-141.84;67.25;18269.56;5081944;28;20187;-61
2024/01/11 09:52:47;;;;;;;69.00;36.30;;;-4.40;99.90;;;-141.84;67.11;18275.66;5081146;28;20219;-61
2024/01/11 09:55:16;;;;;;;60.53;33.60;;;-4.30;99.90;;;-141.84;67.96;18224.84;5087454;28;20227;-61
2024/01/11 09:57:48;;;;;;;61.97;34.90;;;-4.30;99.90;;;-141.84;68.26;18257.38;5077888;28;20664;-61
2024/01/11 10:00:20;;;;;;;68.10;36.50;;;-4.20;99.90;;;-141.84;67.41;18318.31;5083083;28;20227;-61